Time;durP1;ratioP1;P1;durP2;ratioP2;P2;SDS_P1;SDS_P2;PMS_P1;PMS_P2;Temp;Humidity;BMP_temperature;BMP_pressure;BME280_temperature;BME280_humidity;BME280_pressure;Samples;Min_cycle;Max_cycle;Signal;HPM_P1;HPM_P2
2023/04/16 00:00:09;;;;;;;1.00;0.80;;;5.20;99.90;;;;;;5042540;28;20484;-77
2023/04/16 00:02:36;;;;;;;0.53;0.53;;;5.20;99.90;;;;;;5037227;28;20470;-77
2023/04/16 00:05:05;;;;;;;2.40;0.70;;;5.20;99.90;;;;;;5031958;28;20538;-77
2023/04/16 00:07:33;;;;;;;1.10;0.80;;;5.20;99.90;;;;;;5040967;28;20476;-77
2023/04/16 00:10:00;;;;;;;0.80;0.80;;;5.20;99.90;;;;;;5028686;28;20445;-77
2023/04/16 00:12:27;;;;;;;1.03;0.93;;;5.20;99.90;;;;;;5043874;28;20813;-77
2023/04/16 00:14:54;;;;;;;1.00;0.90;;;5.10;99.90;;;;;;5043302;28;20897;-76
2023/04/16 00:17:21;;;;;;;1.40;1.20;;;5.10;99.90;;;;;;5039733;28;20516;-77
2023/04/16 00:19:48;;;;;;;1.27;1.07;;;5.10;99.90;;;;;;5043451;28;20445;-77
2023/04/16 00:22:16;;;;;;;0.90;0.77;;;5.10;99.90;;;;;;5039370;28;20477;-76
2023/04/16 00:24:43;;;;;;;1.10;1.00;;;5.20;99.90;;;;;;5036474;28;20450;-77
2023/04/16 00:27:10;;;;;;;0.80;0.80;;;5.20;99.90;;;;;;5036645;28;20781;-77
2023/04/16 00:29:37;;;;;;;1.40;1.30;;;5.20;99.90;;;;;;5044480;28;20794;-77
2023/04/16 00:32:04;;;;;;;2.73;0.70;;;5.20;99.90;;;;;;5040082;28;20542;-77
2023/04/16 00:34:31;;;;;;;0.70;0.70;;;5.10;99.90;;;;;;5042641;28;20445;-77
2023/04/16 00:36:58;;;;;;;2.60;1.07;;;5.10;99.90;;;;;;5035368;28;20441;-77
2023/04/16 00:39:27;;;;;;;1.30;1.00;;;5.20;99.90;;;;;;5042390;28;20650;-77
2023/04/16 00:41:54;;;;;;;1.47;1.37;;;5.20;99.90;;;;;;5035306;28;20840;-77
2023/04/16 00:44:20;;;;;;;0.80;0.80;;;5.20;99.90;;;;;;5042061;28;20461;-77
2023/04/16 00:46:47;;;;;;;1.17;0.83;;;5.10;99.90;;;;;;5037504;28;20860;-78
2023/04/16 00:49:15;;;;;;;0.77;0.77;;;5.20;99.90;;;;;;5035337;28;21000;-77
2023/04/16 00:51:42;;;;;;;0.70;0.70;;;5.20;99.90;;;;;;5033087;28;20469;-77
2023/04/16 00:54:09;;;;;;;1.50;1.00;;;5.20;99.90;;;;;;5042208;28;20965;-77
2023/04/16 00:56:38;;;;;;;0.93;0.83;;;5.20;99.90;;;;;;5041301;28;20952;-77
2023/04/16 00:59:05;;;;;;;1.50;1.40;;;5.10;99.90;;;;;;5039564;28;20554;-77
2023/04/16 01:01:32;;;;;;;1.93;1.00;;;5.20;99.90;;;;;;5043379;28;20449;-77
2023/04/16 01:03:59;;;;;;;0.97;0.87;;;5.20;99.90;;;;;;5034525;28;21026;-77
2023/04/16 01:06:27;;;;;;;0.73;0.73;;;5.30;99.90;;;;;;5041252;28;20453;-77
2023/04/16 01:08:54;;;;;;;1.73;1.43;;;5.20;99.90;;;;;;5043108;28;20825;-77
2023/04/16 01:11:20;;;;;;;1.47;1.23;;;5.20;99.90;;;;;;5035185;28;20469;-77
2023/04/16 01:13:49;;;;;;;1.43;1.30;;;5.20;99.90;;;;;;5036904;28;20516;-76
2023/04/16 01:16:16;;;;;;;1.33;1.20;;;5.20;99.90;;;;;;5038964;28;20985;-77
2023/04/16 01:18:43;;;;;;;1.50;1.40;;;5.20;99.90;;;;;;5043594;28;20795;-77
2023/04/16 01:21:11;;;;;;;1.40;0.90;;;5.20;99.90;;;;;;5040739;28;20437;-76
2023/04/16 01:23:38;;;;;;;1.13;0.90;;;5.20;99.90;;;;;;5038105;28;20920;-77
2023/04/16 01:26:05;;;;;;;1.47;1.10;;;5.20;99.90;;;;;;5034697;28;20539;-77
2023/04/16 01:28:32;;;;;;;1.40;1.30;;;5.20;99.90;;;;;;5039439;28;20561;-78
2023/04/16 01:30:59;;;;;;;1.53;1.00;;;5.20;99.90;;;;;;5033711;28;20506;-77
2023/04/16 01:33:26;;;;;;;1.93;1.83;;;5.20;99.90;;;;;;5040954;28;20852;-78
2023/04/16 01:35:53;;;;;;;1.27;1.17;;;5.20;99.90;;;;;;5029464;28;20560;-76
2023/04/16 01:38:21;;;;;;;1.17;1.07;;;5.20;99.90;;;;;;5040299;28;20481;-77
2023/04/16 01:40:48;;;;;;;1.40;1.30;;;5.20;99.90;;;;;;5039214;28;20542;-76
2023/04/16 01:43:15;;;;;;;1.40;1.30;;;5.20;99.90;;;;;;5038793;28;20550;-77
2023/04/16 01:45:42;;;;;;;1.47;1.37;;;5.20;99.90;;;;;;5041187;28;20453;-76
2023/04/16 01:48:09;;;;;;;1.00;0.90;;;5.20;99.90;;;;;;5023836;28;20527;-76
2023/04/16 01:50:37;;;;;;;1.90;1.77;;;5.10;99.90;;;;;;5040994;28;20828;-76
2023/04/16 01:53:04;;;;;;;1.27;1.10;;;5.10;99.90;;;;;;5031210;28;20515;-76
2023/04/16 01:55:33;;;;;;;2.23;1.90;;;5.20;99.90;;;;;;5042135;28;20511;-77
2023/04/16 01:58:00;;;;;;;3.20;1.30;;;5.20;99.90;;;;;;5033707;28;20488;-76
2023/04/16 02:00:27;;;;;;;1.30;1.20;;;5.20;99.90;;;;;;5033440;28;20457;-76
2023/04/16 02:02:54;;;;;;;2.27;1.27;;;5.20;99.90;;;;;;5038766;28;21014;-77
2023/04/16 02:05:20;;;;;;;0.77;0.70;;;5.20;99.90;;;;;;5033490;28;20491;-77
2023/04/16 02:07:47;;;;;;;2.63;2.13;;;5.20;99.90;;;;;;5037871;28;20924;-76
2023/04/16 02:10:14;;;;;;;1.10;1.10;;;5.20;99.90;;;;;;5040615;28;20507;-77
2023/04/16 02:12:43;;;;;;;1.60;1.00;;;5.20;99.90;;;;;;5042307;28;20453;-77
2023/04/16 02:15:11;;;;;;;1.30;1.20;;;5.20;99.90;;;;;;5032311;28;20934;-76
2023/04/16 02:17:38;;;;;;;1.70;1.33;;;5.20;99.90;;;;;;5034843;28;20465;-76
2023/04/16 02:20:07;;;;;;;1.73;1.63;;;5.20;99.90;;;;;;5021563;28;20486;-77
2023/04/16 02:22:34;;;;;;;2.20;1.97;;;5.30;99.90;;;;;;5043271;28;20930;-77
2023/04/16 02:25:00;;;;;;;2.07;1.93;;;5.30;99.90;;;;;;5037106;28;20478;-77
2023/04/16 02:27:27;;;;;;;2.27;2.03;;;5.20;99.90;;;;;;5043633;28;20445;-77
2023/04/16 02:29:56;;;;;;;1.70;1.57;;;5.30;99.90;;;;;;5043835;28;20535;-77
2023/04/16 02:32:23;;;;;;;2.67;2.43;;;5.30;99.90;;;;;;5039981;28;20498;-76
2023/04/16 02:34:50;;;;;;;2.67;2.47;;;5.30;99.90;;;;;;5035895;28;20980;-76
2023/04/16 02:37:17;;;;;;;2.03;1.87;;;5.30;99.90;;;;;;5044403;28;20535;-76
2023/04/16 02:39:44;;;;;;;2.20;1.73;;;5.30;99.90;;;;;;5041768;28;20489;-76
2023/04/16 02:42:11;;;;;;;3.13;2.70;;;5.30;99.90;;;;;;5041869;28;20469;-78
2023/04/16 02:44:37;;;;;;;2.50;2.30;;;5.30;99.90;;;;;;5040325;28;20502;-76
2023/04/16 02:47:06;;;;;;;3.20;2.90;;;5.30;99.90;;;;;;5046789;28;20457;-76
2023/04/16 02:49:34;;;;;;;3.10;2.90;;;5.30;99.90;;;;;;5039832;28;20523;-77
2023/04/16 02:52:01;;;;;;;3.60;3.10;;;5.30;99.90;;;;;;5042347;28;20824;-76
2023/04/16 02:54:28;;;;;;;3.43;2.20;;;5.30;99.90;;;;;;5041976;28;20449;-77
2023/04/16 02:56:55;;;;;;;2.07;1.87;;;5.30;99.90;;;;;;5040987;28;20928;-77
2023/04/16 02:59:22;;;;;;;3.17;2.80;;;5.30;99.90;;;;;;5036199;28;20494;-76
2023/04/16 03:01:49;;;;;;;3.73;3.43;;;5.30;99.90;;;;;;5045455;28;20519;-77
2023/04/16 03:04:17;;;;;;;3.90;3.17;;;5.30;99.90;;;;;;5036872;28;20465;-77
2023/04/16 03:06:45;;;;;;;2.77;2.50;;;5.30;99.90;;;;;;5045173;28;20534;-77
2023/04/16 03:09:12;;;;;;;3.67;3.07;;;5.30;99.90;;;;;;5041910;28;20454;-77
2023/04/16 03:11:39;;;;;;;3.07;2.77;;;5.30;99.90;;;;;;5035820;28;20473;-76
2023/04/16 03:14:06;;;;;;;3.20;2.50;;;5.30;99.90;;;;;;5045131;28;20483;-76
2023/04/16 03:16:32;;;;;;;2.80;2.47;;;5.30;99.90;;;;;;5042094;28;20449;-76
2023/04/16 03:19:00;;;;;;;2.93;2.73;;;5.30;99.90;;;;;;5044311;28;20484;-76
2023/04/16 03:21:28;;;;;;;1.97;1.77;;;5.40;99.90;;;;;;5033986;28;22129;-77
2023/04/16 03:23:56;;;;;;;2.93;2.60;;;5.30;99.90;;;;;;5043945;28;20453;-76
2023/04/16 03:26:23;;;;;;;2.53;2.23;;;5.30;99.90;;;;;;5030105;28;20488;-76
2023/04/16 03:28:49;;;;;;;2.83;2.63;;;5.30;99.90;;;;;;5038178;28;20473;-76
2023/04/16 03:31:16;;;;;;;3.30;3.00;;;5.30;99.90;;;;;;5033796;28;20511;-76
2023/04/16 03:33:43;;;;;;;4.27;3.43;;;5.30;99.90;;;;;;5041647;28;20519;-76
2023/04/16 03:36:10;;;;;;;4.17;3.80;;;5.30;99.90;;;;;;5028404;28;20493;-76
2023/04/16 03:38:39;;;;;;;4.17;3.37;;;5.30;99.90;;;;;;5040458;28;20493;-76
2023/04/16 03:41:06;;;;;;;5.07;4.67;;;5.30;99.90;;;;;;5038778;28;20468;-76
2023/04/16 03:43:33;;;;;;;4.20;3.20;;;5.40;99.90;;;;;;5041033;28;20465;-76
2023/04/16 03:46:00;;;;;;;4.80;3.43;;;5.40;99.90;;;;;;5045525;28;20578;-76
2023/04/16 03:48:27;;;;;;;5.07;3.43;;;5.40;99.90;;;;;;5034638;28;20554;-76
2023/04/16 03:50:53;;;;;;;6.53;3.47;;;5.30;99.90;;;;;;5038561;28;21190;-77
2023/04/16 03:53:20;;;;;;;3.90;3.50;;;5.30;99.90;;;;;;5040088;28;20445;-77
2023/04/16 03:55:51;;;;;;;3.33;3.00;;;5.30;99.90;;;;;;5044119;28;20836;-77
2023/04/16 03:58:18;;;;;;;3.17;2.80;;;5.30;99.90;;;;;;5040049;28;20497;-78
2023/04/16 04:00:45;;;;;;;3.50;2.70;;;5.30;99.90;;;;;;5042576;28;20530;-77
2023/04/16 04:03:15;;;;;;;4.20;3.00;;;5.30;99.90;;;;;;5039736;28;20935;-77
2023/04/16 04:05:43;;;;;;;4.27;2.03;;;5.30;99.90;;;;;;5043029;28;20511;-77
2023/04/16 04:08:10;;;;;;;2.07;1.80;;;5.30;99.90;;;;;;5041831;28;20457;-77
2023/04/16 04:10:37;;;;;;;4.13;1.83;;;5.30;99.90;;;;;;5039661;28;20498;-77
2023/04/16 04:13:07;;;;;;;2.10;2.00;;;5.30;99.90;;;;;;5043464;28;20527;-77
2023/04/16 04:15:34;;;;;;;2.60;2.03;;;5.30;99.90;;;;;;5042450;28;20534;-77
2023/04/16 04:18:01;;;;;;;2.60;1.67;;;5.30;99.90;;;;;;5044020;28;20445;-77
2023/04/16 04:20:28;;;;;;;2.50;2.30;;;5.30;99.90;;;;;;5030878;28;20558;-77
2023/04/16 04:22:55;;;;;;;1.40;1.30;;;5.30;99.90;;;;;;5044994;28;20449;-77
2023/04/16 04:25:22;;;;;;;1.87;1.77;;;5.30;99.90;;;;;;5040885;28;20960;-77
2023/04/16 04:27:49;;;;;;;1.83;1.73;;;5.30;99.90;;;;;;5040960;28;20551;-77
2023/04/16 04:30:17;;;;;;;2.00;1.77;;;5.30;99.90;;;;;;5037546;28;20488;-77
2023/04/16 04:32:44;;;;;;;1.57;1.47;;;5.30;99.90;;;;;;5043386;28;20528;-77
2023/04/16 04:35:11;;;;;;;1.57;1.30;;;5.30;99.90;;;;;;5042166;28;20458;-77
2023/04/16 04:37:38;;;;;;;1.47;1.13;;;5.30;99.90;;;;;;5036753;28;20539;-77
2023/04/16 04:40:07;;;;;;;0.87;0.87;;;5.30;99.90;;;;;;5043081;28;20485;-77
2023/04/16 04:42:34;;;;;;;1.70;1.60;;;5.30;99.90;;;;;;5035307;28;20461;-77
2023/04/16 04:45:00;;;;;;;2.30;1.90;;;5.30;99.90;;;;;;5043756;28;20457;-78
2023/04/16 04:47:29;;;;;;;1.93;1.10;;;5.30;99.90;;;;;;5041874;28;20762;-77
2023/04/16 04:49:56;;;;;;;0.80;0.80;;;5.30;99.90;;;;;;5039294;28;20539;-77
2023/04/16 04:52:23;;;;;;;1.57;1.13;;;5.30;99.90;;;;;;5036255;28;20489;-78
2023/04/16 04:54:50;;;;;;;1.17;1.07;;;5.30;99.90;;;;;;5040577;28;20457;-77
2023/04/16 04:57:16;;;;;;;1.10;0.93;;;5.30;99.90;;;;;;5041273;28;20572;-77
2023/04/16 04:59:43;;;;;;;2.27;0.80;;;5.30;99.90;;;;;;5039315;28;20583;-77
2023/04/16 05:02:10;;;;;;;1.10;0.80;;;5.30;99.90;;;;;;5050125;28;20468;-77
2023/04/16 05:04:39;;;;;;;4.30;1.57;;;5.30;99.90;;;;;;5049472;28;20522;-77
2023/04/16 05:07:06;;;;;;;1.43;1.33;;;5.30;99.90;;;;;;5037884;28;20498;-77
2023/04/16 05:09:33;;;;;;;1.00;1.00;;;5.30;99.90;;;;;;5040248;28;20445;-77
2023/04/16 05:12:00;;;;;;;3.47;1.03;;;5.40;99.90;;;;;;5042763;28;20630;-77
2023/04/16 05:14:27;;;;;;;1.10;0.97;;;5.40;99.90;;;;;;5040852;28;20514;-77
2023/04/16 05:16:54;;;;;;;1.37;1.03;;;5.40;99.90;;;;;;5048228;28;20469;-77
2023/04/16 05:19:21;;;;;;;1.73;1.10;;;5.40;99.90;;;;;;5041538;28;20557;-77
2023/04/16 05:21:49;;;;;;;1.13;1.03;;;5.50;99.90;;;;;;5035855;28;20883;-77
2023/04/16 05:24:16;;;;;;;2.20;0.70;;;5.50;99.90;;;;;;5034096;28;20522;-77
2023/04/16 05:26:43;;;;;;;1.00;0.90;;;5.50;99.90;;;;;;5043957;28;20449;-78
2023/04/16 05:29:10;;;;;;;1.10;1.00;;;5.50;99.90;;;;;;5035709;28;20803;-77
2023/04/16 05:31:37;;;;;;;1.20;1.10;;;5.50;99.90;;;;;;5031916;28;20544;-77
2023/04/16 05:34:04;;;;;;;1.50;0.70;;;5.50;99.90;;;;;;5034375;28;20485;-79
2023/04/16 05:36:31;;;;;;;0.80;0.80;;;5.50;99.90;;;;;;5033745;28;20545;-76
2023/04/16 05:38:59;;;;;;;0.70;0.70;;;5.50;99.90;;;;;;5039211;28;20896;-77
2023/04/16 05:41:26;;;;;;;1.10;0.73;;;5.60;99.90;;;;;;5042025;28;20929;-77
2023/04/16 05:43:53;;;;;;;1.73;0.70;;;5.60;99.90;;;;;;5038951;28;20561;-77
2023/04/16 05:46:20;;;;;;;0.80;0.80;;;5.60;99.90;;;;;;5040534;28;21208;-77
2023/04/16 05:48:47;;;;;;;1.67;1.13;;;5.60;99.90;;;;;;5028165;28;21018;-79
2023/04/16 05:51:14;;;;;;;1.13;0.80;;;5.60;99.90;;;;;;5035923;28;20957;-79
2023/04/16 05:53:41;;;;;;;1.07;0.80;;;5.60;99.90;;;;;;5041432;28;20465;-76
2023/04/16 05:56:09;;;;;;;0.90;0.70;;;5.60;99.90;;;;;;5045618;28;20488;-76
2023/04/16 05:58:36;;;;;;;0.90;0.53;;;5.60;99.90;;;;;;5033366;28;20462;-76
2023/04/16 06:01:03;;;;;;;0.60;0.57;;;5.60;99.90;;;;;;5046604;28;20516;-75
2023/04/16 06:03:30;;;;;;;1.00;0.60;;;5.60;99.90;;;;;;5043954;28;21034;-76
2023/04/16 06:05:57;;;;;;;0.83;0.50;;;5.60;99.90;;;;;;5039715;28;20803;-76
2023/04/16 06:08:24;;;;;;;1.13;0.60;;;5.60;99.90;;;;;;5044686;28;20480;-76
2023/04/16 06:10:51;;;;;;;0.60;0.50;;;5.70;99.90;;;;;;5046382;28;20511;-75
2023/04/16 06:13:19;;;;;;;3.17;0.70;;;5.70;99.90;;;;;;5047141;28;20550;-76
2023/04/16 06:15:46;;;;;;;0.73;0.47;;;5.60;99.90;;;;;;5043399;28;20532;-75
2023/04/16 06:18:14;;;;;;;1.23;0.50;;;5.70;99.90;;;;;;5032230;28;20955;-75
2023/04/16 06:20:41;;;;;;;0.60;0.50;;;5.70;99.90;;;;;;5046771;28;20488;-75
2023/04/16 06:23:08;;;;;;;0.60;0.60;;;5.70;99.90;;;;;;5045117;28;20456;-76
2023/04/16 06:25:35;;;;;;;0.50;0.50;;;5.70;99.90;;;;;;5040027;28;20925;-75
2023/04/16 06:28:02;;;;;;;0.50;0.50;;;5.70;99.90;;;;;;5035039;28;20523;-76
2023/04/16 06:30:30;;;;;;;4.27;0.70;;;5.70;99.90;;;;;;5046878;28;20453;-75
2023/04/16 06:32:57;;;;;;;0.50;0.50;;;5.70;99.90;;;;;;5043917;28;20913;-76
2023/04/16 06:35:24;;;;;;;1.10;0.70;;;5.70;99.90;;;;;;5043822;28;20461;-76
2023/04/16 06:37:51;;;;;;;0.63;0.50;;;5.70;99.90;;;;;;5042522;28;20461;-76
2023/04/16 06:40:18;;;;;;;1.33;0.80;;;5.70;99.90;;;;;;5044736;28;20553;-76
2023/04/16 06:42:45;;;;;;;2.10;0.73;;;5.80;99.90;;;;;;5042267;28;20546;-75
2023/04/16 06:45:12;;;;;;;1.43;0.67;;;5.80;99.90;;;;;;5047915;28;20847;-76
2023/04/16 06:47:41;;;;;;;0.60;0.60;;;5.80;99.90;;;;;;5042970;28;20450;-76
2023/04/16 06:50:08;;;;;;;0.60;0.60;;;5.90;99.90;;;;;;5044495;28;20489;-76
2023/04/16 06:52:35;;;;;;;1.47;1.00;;;5.90;99.90;;;;;;5041045;28;20468;-76
2023/04/16 06:55:02;;;;;;;0.80;0.80;;;5.90;99.90;;;;;;5042569;28;20630;-76
2023/04/16 06:57:29;;;;;;;1.00;0.90;;;6.00;99.90;;;;;;5038274;28;20594;-75
2023/04/16 06:59:56;;;;;;;0.77;0.77;;;5.90;99.90;;;;;;5044324;28;20593;-76
2023/04/16 07:02:24;;;;;;;0.80;0.70;;;6.00;99.90;;;;;;5035633;28;20837;-76
2023/04/16 07:04:52;;;;;;;1.23;1.13;;;5.90;99.90;;;;;;5046447;28;20445;-76
2023/04/16 07:07:19;;;;;;;0.90;0.90;;;6.00;99.90;;;;;;5041257;28;20918;-76
2023/04/16 07:09:46;;;;;;;0.90;0.90;;;6.10;99.90;;;;;;5036626;28;20544;-76
2023/04/16 07:12:13;;;;;;;2.70;1.33;;;6.10;99.90;;;;;;5042390;28;20481;-76
2023/04/16 07:14:40;;;;;;;1.13;1.03;;;6.10;99.90;;;;;;5040316;28;20527;-76
2023/04/16 07:17:07;;;;;;;1.43;1.33;;;6.30;99.90;;;;;;5041987;28;20889;-75
2023/04/16 07:19:34;;;;;;;1.07;0.97;;;6.30;99.90;;;;;;5035903;28;20527;-76
2023/04/16 07:22:02;;;;;;;1.47;1.13;;;6.30;99.90;;;;;;5043793;28;20445;-75
2023/04/16 07:24:30;;;;;;;1.17;0.90;;;6.40;99.90;;;;;;5042217;28;20534;-76
2023/04/16 07:26:56;;;;;;;1.33;1.23;;;6.40;99.90;;;;;;5036695;28;20483;-75
2023/04/16 07:29:23;;;;;;;1.10;0.90;;;6.50;99.90;;;;;;5039986;28;20482;-76
2023/04/16 07:31:51;;;;;;;0.90;0.80;;;6.60;99.90;;;;;;5036923;28;20499;-76
2023/04/16 07:34:18;;;;;;;0.73;0.73;;;6.70;99.90;;;;;;5038316;28;20511;-77
2023/04/16 07:36:45;;;;;;;1.27;1.13;;;6.80;99.90;;;;;;5040534;28;20938;-76
2023/04/16 07:39:13;;;;;;;1.10;1.10;;;6.90;99.90;;;;;;5040369;28;20453;-78
2023/04/16 07:41:40;;;;;;;3.47;1.27;;;6.90;99.90;;;;;;5042928;28;20524;-78
2023/04/16 07:44:07;;;;;;;1.70;1.63;;;6.90;99.90;;;;;;5040804;28;20476;-77
2023/04/16 07:46:34;;;;;;;1.10;1.10;;;7.00;99.90;;;;;;5042792;28;20941;-76
2023/04/16 07:49:01;;;;;;;1.30;0.90;;;7.10;99.90;;;;;;5044364;28;20454;-77
2023/04/16 07:51:28;;;;;;;1.10;1.00;;;7.30;99.90;;;;;;5042023;28;20511;-77
2023/04/16 07:53:55;;;;;;;1.23;0.90;;;7.40;99.90;;;;;;5044485;28;20510;-77
2023/04/16 07:56:24;;;;;;;1.13;1.07;;;7.50;99.90;;;;;;5032359;28;20604;-77
2023/04/16 07:58:51;;;;;;;1.23;1.13;;;7.40;99.90;;;;;;5035092;28;20457;-78
2023/04/16 08:01:18;;;;;;;1.27;1.27;;;7.50;99.90;;;;;;5042827;28;20922;-78
2023/04/16 08:03:45;;;;;;;1.40;1.10;;;7.70;99.90;;;;;;5037495;28;20465;-78
2023/04/16 08:06:12;;;;;;;1.60;1.50;;;7.80;99.90;;;;;;5041870;28;20953;-77
2023/04/16 08:08:39;;;;;;;1.30;1.20;;;8.10;99.90;;;;;;5042124;28;20489;-77
2023/04/16 08:11:06;;;;;;;1.17;1.07;;;8.30;99.90;;;;;;5039259;28;20506;-77
2023/04/16 08:13:34;;;;;;;2.73;2.53;;;8.40;99.90;;;;;;5036353;28;20501;-77
2023/04/16 08:16:01;;;;;;;0.90;0.90;;;8.30;99.90;;;;;;5043100;28;20484;-77
2023/04/16 08:18:28;;;;;;;1.60;1.50;;;8.20;99.90;;;;;;5042897;28;20445;-77
2023/04/16 08:20:55;;;;;;;2.10;1.13;;;8.10;99.90;;;;;;5035378;28;20563;-77
2023/04/16 08:23:22;;;;;;;1.50;1.40;;;8.30;99.90;;;;;;5041940;28;20453;-77
2023/04/16 08:25:49;;;;;;;1.47;1.37;;;8.30;99.90;;;;;;5040730;28;20557;-78
2023/04/16 08:28:16;;;;;;;1.33;1.23;;;8.40;99.90;;;;;;5039425;28;20535;-77
2023/04/16 08:30:45;;;;;;;1.30;1.20;;;8.40;99.90;;;;;;5029248;28;20946;-78
2023/04/16 08:33:13;;;;;;;1.53;1.43;;;8.20;99.90;;;;;;5039725;28;20475;-78
2023/04/16 08:35:40;;;;;;;1.00;0.90;;;8.50;99.90;;;;;;5038978;28;20533;-77
2023/04/16 08:38:07;;;;;;;1.93;1.83;;;8.80;99.90;;;;;;5042174;28;20453;-78
2023/04/16 08:40:37;;;;;;;3.27;1.67;;;8.80;99.90;;;;;;5037153;28;20507;-77
2023/04/16 08:43:09;;;;;;;1.40;1.30;;;8.40;99.90;;;;;;5042626;28;20493;-77
2023/04/16 08:45:38;;;;;;;1.63;1.53;;;8.20;99.90;;;;;;5042558;28;20520;-77
2023/04/16 08:48:07;;;;;;;1.97;1.80;;;8.00;99.90;;;;;;5041724;28;20908;-78
2023/04/16 08:50:35;;;;;;;1.50;1.40;;;8.00;99.90;;;;;;5033857;28;20469;-78
2023/04/16 08:53:05;;;;;;;2.83;1.40;;;7.90;99.90;;;;;;5038967;28;20991;-78
2023/04/16 08:55:37;;;;;;;2.23;2.03;;;7.90;99.90;;;;;;5038448;28;20466;-78
2023/04/16 08:58:09;;;;;;;1.73;1.63;;;7.90;99.90;;;;;;5043842;28;20472;-78
2023/04/16 09:00:39;;;;;;;2.60;2.23;;;8.00;99.90;;;;;;5035813;28;20569;-77
2023/04/16 09:03:09;;;;;;;2.30;2.10;;;7.90;99.90;;;;;;5041906;28;20461;-78
2023/04/16 09:05:37;;;;;;;2.60;2.40;;;7.90;99.90;;;;;;5031382;28;20945;-77
2023/04/16 09:08:05;;;;;;;2.20;1.73;;;7.90;99.90;;;;;;5044344;28;20449;-78
2023/04/16 09:10:33;;;;;;;2.20;1.87;;;7.80;99.90;;;;;;5040304;28;20465;-78
2023/04/16 09:13:00;;;;;;;1.93;1.70;;;7.90;99.90;;;;;;5040559;28;20457;-78
2023/04/16 09:15:28;;;;;;;1.93;1.83;;;7.90;99.90;;;;;;5036613;28;20469;-79
2023/04/16 09:17:56;;;;;;;2.13;1.63;;;7.90;99.90;;;;;;5043415;28;20520;-78
2023/04/16 09:20:24;;;;;;;2.10;2.00;;;7.90;99.90;;;;;;5042181;28;20484;-77
2023/04/16 09:22:52;;;;;;;1.57;1.47;;;7.90;99.90;;;;;;5033163;28;20470;-77
2023/04/16 09:25:21;;;;;;;1.63;1.50;;;7.90;99.90;;;;;;5042696;28;20780;-77
2023/04/16 09:27:50;;;;;;;1.73;1.63;;;7.90;99.90;;;;;;5036106;28;20442;-77
2023/04/16 09:30:24;;;;;;;2.27;2.07;;;7.90;99.90;;;;;;5040593;28;20460;-78
2023/04/16 09:32:52;;;;;;;1.60;1.50;;;7.80;99.90;;;;;;5038169;28;20453;-78
2023/04/16 09:35:20;;;;;;;1.80;1.70;;;7.70;99.90;;;;;;5044364;28;20520;-77
2023/04/16 09:37:57;;;;;;;2.20;1.50;;;7.80;99.90;;;;;;5042666;28;20465;-78
2023/04/16 09:40:25;;;;;;;3.97;3.40;;;7.80;99.90;;;;;;5036572;28;20520;-77
2023/04/16 09:42:54;;;;;;;1.70;1.60;;;7.80;99.90;;;;;;5047870;28;20479;-77
2023/04/16 09:45:22;;;;;;;1.73;1.63;;;7.90;99.90;;;;;;5051689;28;20777;-77
2023/04/16 09:47:49;;;;;;;2.30;1.40;;;7.90;99.90;;;;;;5051538;28;20477;-78
2023/04/16 09:50:18;;;;;;;2.07;1.93;;;7.90;99.90;;;;;;5055408;28;20837;-78
2023/04/16 09:52:48;;;;;;;1.40;1.20;;;7.80;99.90;;;;;;5047001;28;20504;-77
2023/04/16 09:55:22;;;;;;;2.10;2.00;;;7.70;99.90;;;;;;5048086;28;20511;-77
2023/04/16 09:57:49;;;;;;;1.13;1.10;;;7.70;99.90;;;;;;5047577;28;20614;-77
2023/04/16 10:00:19;;;;;;;1.37;1.20;;;7.70;99.90;;;;;;5052761;28;20787;-77
2023/04/16 10:02:46;;;;;;;2.40;1.17;;;7.70;99.90;;;;;;5048576;28;20559;-77
2023/04/16 10:05:16;;;;;;;1.60;1.47;;;7.60;99.90;;;;;;5046468;28;20467;-77
2023/04/16 10:07:43;;;;;;;1.37;1.27;;;7.50;99.90;;;;;;5046698;28;21371;-77
2023/04/16 10:10:10;;;;;;;1.27;1.17;;;7.60;99.90;;;;;;5056385;28;20452;-77
2023/04/16 10:12:39;;;;;;;1.50;1.37;;;7.60;99.90;;;;;;5052205;28;20492;-77
2023/04/16 10:15:07;;;;;;;1.60;1.50;;;7.60;99.90;;;;;;5050620;28;20925;-77
2023/04/16 10:17:35;;;;;;;1.60;1.50;;;7.60;99.90;;;;;;5047707;28;20917;-77
2023/04/16 10:20:03;;;;;;;2.17;1.97;;;7.60;99.90;;;;;;5051718;28;20660;-77
2023/04/16 10:22:30;;;;;;;1.43;1.33;;;7.70;99.90;;;;;;5043315;28;20521;-77
2023/04/16 10:24:58;;;;;;;2.43;1.90;;;7.60;99.90;;;;;;5057003;28;20453;-77
2023/04/16 10:27:27;;;;;;;2.07;1.87;;;7.60;99.90;;;;;;5044877;28;20469;-77
2023/04/16 10:29:56;;;;;;;4.80;4.13;;;7.70;99.90;;;;;;5052543;28;20460;-77
2023/04/16 10:32:27;;;;;;;2.20;1.93;;;7.80;99.90;;;;;;5050658;28;20955;-77
2023/04/16 10:34:54;;;;;;;4.77;3.90;;;7.90;99.90;;;;;;5049778;28;20476;-77
2023/04/16 10:37:30;;;;;;;8.83;5.03;;;7.80;99.90;;;;;;5044893;28;20464;-77
2023/04/16 10:39:58;;;;;;;21.10;11.60;;;7.80;99.90;;;;;;5049447;28;20500;-77
2023/04/16 10:42:26;;;;;;;6.13;5.57;;;7.80;99.90;;;;;;5041005;28;20860;-77
2023/04/16 10:44:53;;;;;;;12.63;8.50;;;7.80;99.90;;;;;;5051782;28;20452;-78
2023/04/16 10:47:26;;;;;;;5.70;4.13;;;7.80;99.90;;;;;;5049567;28;20465;-77
2023/04/16 10:49:53;;;;;;;32.67;16.80;;;7.90;99.90;;;;;;5050340;28;20461;-77
2023/04/16 10:52:21;;;;;;;17.30;10.67;;;7.90;99.90;;;;;;5047870;28;20538;-77
2023/04/16 10:54:48;;;;;;;9.30;6.07;;;8.00;99.90;;;;;;5051111;28;20456;-77
2023/04/16 10:57:17;;;;;;;43.00;18.30;;;8.10;99.90;;;;;;5051019;28;20476;-77
2023/04/16 10:59:45;;;;;;;15.87;8.90;;;8.30;99.90;;;;;;5039312;28;20461;-77
2023/04/16 11:02:14;;;;;;;6.33;5.77;;;8.40;99.90;;;;;;5041441;28;20555;-77
2023/04/16 11:04:44;;;;;;;15.23;9.60;;;8.60;99.90;;;;;;5032529;28;20457;-78
2023/04/16 11:07:19;;;;;;;4.50;3.33;;;8.70;99.90;;;;;;5033921;28;20541;-78
2023/04/16 11:09:55;;;;;;;2.20;2.00;;;8.90;99.90;;;;;;5040226;28;20461;-78
2023/04/16 11:12:23;;;;;;;3.10;1.90;;;8.80;99.90;;;;;;5041216;28;20452;-78
2023/04/16 11:14:52;;;;;;;2.20;2.10;;;9.00;99.90;;;;;;5033303;28;20457;-78
2023/04/16 11:17:19;;;;;;;1.57;1.47;;;9.00;99.90;;;;;;5045727;28;20469;-78
2023/04/16 11:19:48;;;;;;;2.40;1.97;;;9.00;99.90;;;;;;5038505;28;20884;-78
2023/04/16 11:22:17;;;;;;;2.27;2.17;;;9.00;99.90;;;;;;5035242;28;20484;-78
2023/04/16 11:24:45;;;;;;;2.47;2.27;;;9.10;99.90;;;;;;5045596;28;20473;-78
2023/04/16 11:27:15;;;;;;;2.23;1.80;;;9.40;99.90;;;;;;5038868;28;20465;-78
2023/04/16 11:29:42;;;;;;;1.70;1.60;;;9.40;99.90;;;;;;5041883;28;20465;-77
2023/04/16 11:32:09;;;;;;;1.40;1.30;;;9.50;99.90;;;;;;5039652;28;20519;-78
2023/04/16 11:34:44;;;;;;;1.90;1.80;;;9.40;99.90;;;;;;5039655;28;20445;-78
2023/04/16 11:37:13;;;;;;;2.20;2.07;;;9.40;99.90;;;;;;5044117;28;20456;-78
2023/04/16 11:39:52;;;;;;;1.00;1.00;;;9.30;99.90;;;;;;5040172;28;21033;-78
2023/04/16 11:42:21;;;;;;;1.87;1.57;;;9.40;99.90;;;;;;5043508;28;20492;-78
2023/04/16 11:44:52;;;;;;;1.73;1.63;;;9.60;99.90;;;;;;5043811;28;20460;-78
2023/04/16 11:47:19;;;;;;;1.40;1.30;;;9.70;99.90;;;;;;5037901;28;20565;-77
2023/04/16 11:49:46;;;;;;;1.20;1.10;;;9.70;99.90;;;;;;5044808;28;20514;-78
2023/04/16 11:52:24;;;;;;;1.10;1.03;;;9.80;99.90;;;;;;5039773;28;20849;-78
2023/04/16 11:54:51;;;;;;;1.80;1.70;;;9.90;99.90;;;;;;5043466;28;20456;-78
2023/04/16 11:57:25;;;;;;;1.50;1.40;;;10.00;99.90;;;;;;5043896;28;20972;-77
2023/04/16 11:59:53;;;;;;;1.20;1.10;;;10.10;99.90;;;;;;5044614;28;20460;-77
2023/04/16 12:02:35;;;;;;;1.50;1.40;;;10.20;99.90;;;;;;5038659;28;20520;-78
2023/04/16 12:05:03;;;;;;;1.20;1.10;;;9.90;99.90;;;;;;5042638;28;20479;-77
2023/04/16 12:07:31;;;;;;;1.33;1.23;;;9.90;99.90;;;;;;5037261;28;20484;-78
2023/04/16 12:10:08;;;;;;;1.60;1.50;;;9.80;99.90;;;;;;5033682;28;20783;-78
2023/04/16 12:12:35;;;;;;;1.20;1.10;;;9.80;99.90;;;;;;5035756;28;20469;-78
2023/04/16 12:15:03;;;;;;;2.87;2.43;;;9.80;99.90;;;;;;5044263;28;20831;-78
2023/04/16 12:17:30;;;;;;;4.40;2.93;;;10.00;99.90;;;;;;5030099;28;20809;-78
2023/04/16 12:19:59;;;;;;;3.47;1.90;;;10.10;99.90;;;;;;5030875;28;20458;-78
2023/04/16 12:22:33;;;;;;;1.57;1.47;;;10.00;99.90;;;;;;5033527;28;20485;-78
2023/04/16 12:25:01;;;;;;;1.17;1.10;;;9.90;99.90;;;;;;5039973;28;20516;-78
2023/04/16 12:27:45;;;;;;;1.30;1.20;;;9.80;99.90;;;;;;5036828;28;20483;-78
2023/04/16 12:30:13;;;;;;;2.03;1.87;;;9.70;99.90;;;;;;5040194;28;20449;-78
2023/04/16 12:32:41;;;;;;;1.47;1.37;;;9.60;99.90;;;;;;5033545;28;20534;-78
2023/04/16 12:35:09;;;;;;;1.57;1.40;;;9.60;99.90;;;;;;5039596;28;20453;-78
2023/04/16 12:37:38;;;;;;;1.83;1.73;;;9.70;99.90;;;;;;5040459;28;20452;-78
2023/04/16 12:40:06;;;;;;;1.53;1.43;;;9.70;99.90;;;;;;5043644;28;20464;-78
2023/04/16 12:42:35;;;;;;;1.43;1.07;;;9.60;99.90;;;;;;5036186;28;20923;-78
2023/04/16 12:45:03;;;;;;;1.67;1.40;;;9.40;99.90;;;;;;5039635;28;20549;-78
2023/04/16 12:47:30;;;;;;;1.50;1.37;;;9.30;99.90;;;;;;5033927;28;20454;-77
2023/04/16 12:49:58;;;;;;;1.97;1.47;;;9.20;99.90;;;;;;5037339;28;20473;-77
2023/04/16 12:52:25;;;;;;;1.70;1.60;;;9.30;99.90;;;;;;5035801;28;20516;-77
2023/04/16 12:54:53;;;;;;;1.70;1.60;;;9.20;99.90;;;;;;5040343;28;20506;-77
2023/04/16 12:57:20;;;;;;;1.80;1.70;;;9.20;99.90;;;;;;5035031;28;20490;-78